createdAt,value
2023-08-10T00:14:31.380Z,78.06
2023-08-10T00:17:00.895Z,77.91
2023-08-10T00:19:28.797Z,77.78
2023-08-10T00:21:57.936Z,77.54
2023-08-10T00:24:29.118Z,77.55
2023-08-10T00:27:01.624Z,77.52
2023-08-10T00:29:30.739Z,77.34
2023-08-10T00:31:59.211Z,77.34
2023-08-10T00:34:28.548Z,77.18
2023-08-10T00:36:57.859Z,77.07
2023-08-10T00:39:27.784Z,77.01
2023-08-10T00:41:56.630Z,76.93
2023-08-10T00:44:25.763Z,76.83
2023-08-10T00:46:55.180Z,76.77
2023-08-10T00:49:31.288Z,76.75
2023-08-10T00:51:59.953Z,76.69
2023-08-10T00:54:31.237Z,76.68
2023-08-10T00:57:00.936Z,76.73
2023-08-10T00:59:36.259Z,76.80
2023-08-10T01:02:05.667Z,76.84
2023-08-10T01:04:34.826Z,76.87
2023-08-10T01:07:34.408Z,77.07
2023-08-10T01:10:26.640Z,77.06
2023-08-10T01:13:06.407Z,77.19
2023-08-10T01:15:48.305Z,77.33
2023-08-10T01:18:20.755Z,77.86
2023-08-10T01:20:59.256Z,78.10
2023-08-10T01:23:42.433Z,77.78
2023-08-10T01:26:22.186Z,77.66
2023-08-10T01:28:53.561Z,77.61
2023-08-10T01:31:22.573Z,77.62
2023-08-10T01:33:51.341Z,77.65
2023-08-10T01:36:19.542Z,77.65
2023-08-10T01:38:47.748Z,77.81
2023-08-10T01:41:16.944Z,78.03
2023-08-10T01:43:45.834Z,78.36
2023-08-10T01:46:18.320Z,78.19
2023-08-10T01:48:49.226Z,78.10
2023-08-10T01:51:23.108Z,78.02
2023-08-10T01:53:54.034Z,78.03
2023-08-10T01:56:22.214Z,78.07
2023-08-10T01:58:51.380Z,78.08
2023-08-10T02:01:19.555Z,78.13
2023-08-10T02:03:46.903Z,78.27
2023-08-10T02:06:14.469Z,78.39
2023-08-10T02:08:43.759Z,78.59
2023-08-10T02:11:11.643Z,78.71
2023-08-10T02:13:40.356Z,78.72
2023-08-10T02:16:08.558Z,78.73
2023-08-10T02:18:36.962Z,78.72
2023-08-10T02:21:05.432Z,78.69
2023-08-10T02:23:34.145Z,78.69
2023-08-10T02:26:01.308Z,78.72
2023-08-10T02:28:29.935Z,78.78
2023-08-10T02:30:59.297Z,78.81
2023-08-10T02:33:26.978Z,78.84
2023-08-10T02:35:56.855Z,79.11
2023-08-10T02:38:24.105Z,79.51
2023-08-10T02:40:53.348Z,79.31
2023-08-10T02:43:22.156Z,79.32
2023-08-10T02:45:51.168Z,79.24
2023-08-10T02:48:21.194Z,79.38
2023-08-10T02:50:51.153Z,79.25
2023-08-10T02:53:19.743Z,79.41
2023-08-10T02:55:49.938Z,79.55
2023-08-10T02:58:21.507Z,79.61
2023-08-10T03:00:49.330Z,79.62
2023-08-10T03:03:18.002Z,79.66
2023-08-10T03:05:46.499Z,79.82
2023-08-10T03:08:15.283Z,79.86
2023-08-10T03:10:44.158Z,79.74
2023-08-10T03:13:15.590Z,79.70
2023-08-10T03:15:43.343Z,79.67
2023-08-10T03:18:14.319Z,79.66
2023-08-10T03:20:44.881Z,79.64
2023-08-10T03:23:12.939Z,79.58
2023-08-10T03:25:45.456Z,79.60
2023-08-10T03:28:15.808Z,79.61
2023-08-10T03:30:45.035Z,79.60
2023-08-10T03:33:13.450Z,79.59
2023-08-10T03:35:42.881Z,79.58
2023-08-10T03:38:11.692Z,79.76
2023-08-10T03:40:40.900Z,79.77
2023-08-10T03:43:11.118Z,79.72
2023-08-10T03:45:39.618Z,79.69
2023-08-10T03:48:08.940Z,79.65
2023-08-10T03:50:37.553Z,79.64
2023-08-10T03:53:08.415Z,79.62
2023-08-10T03:55:37.668Z,79.60
2023-08-10T03:58:05.625Z,79.59
2023-08-10T04:00:33.160Z,79.54
2023-08-10T04:03:01.358Z,79.53
2023-08-10T04:05:30.476Z,79.52
2023-08-10T04:07:59.658Z,79.54
2023-08-10T04:10:28.237Z,79.55
2023-08-10T04:12:56.280Z,79.52
2023-08-10T04:15:24.704Z,79.52
2023-08-10T04:17:53.922Z,79.52
2023-08-10T04:20:22.144Z,79.56
2023-08-10T04:22:51.130Z,79.62
2023-08-10T04:25:22.062Z,79.57
2023-08-10T04:27:50.065Z,79.46
2023-08-10T04:30:18.939Z,79.31
2023-08-10T04:32:46.917Z,79.18
2023-08-10T04:35:15.910Z,79.07
2023-08-10T04:37:45.546Z,78.94
2023-08-10T04:40:16.719Z,78.79
2023-08-10T04:42:46.189Z,78.65
2023-08-10T04:45:14.270Z,78.49
2023-08-10T04:47:43.937Z,78.27
2023-08-10T04:50:12.589Z,78.00
2023-08-10T04:52:43.556Z,77.83
2023-08-10T04:55:12.092Z,77.60
2023-08-10T04:57:42.819Z,77.36
2023-08-10T05:00:12.580Z,77.06
2023-08-10T05:02:42.512Z,76.70
2023-08-10T05:05:14.478Z,76.36
2023-08-10T05:07:43.334Z,76.13
2023-08-10T05:10:11.221Z,75.97
2023-08-10T05:12:39.948Z,75.82
2023-08-10T05:15:09.612Z,75.58
2023-08-10T05:17:38.977Z,75.39
2023-08-10T05:20:10.298Z,75.24
2023-08-10T05:22:58.713Z,75.09
2023-08-10T05:25:27.599Z,74.98
2023-08-10T05:27:58.126Z,74.66
2023-08-10T05:30:26.805Z,74.38
2023-08-10T05:32:55.048Z,74.29
2023-08-10T05:35:23.762Z,74.28
2023-08-10T05:37:52.266Z,74.10
2023-08-10T05:40:19.729Z,73.94
2023-08-10T05:42:47.360Z,73.78
2023-08-10T05:45:14.822Z,73.73
2023-08-10T05:47:44.840Z,73.65
2023-08-10T05:50:15.585Z,73.61
2023-08-10T05:52:56.120Z,73.48
2023-08-10T05:55:25.118Z,73.43
2023-08-10T05:57:53.881Z,73.30
2023-08-10T06:00:23.644Z,73.18
2023-08-10T06:02:52.205Z,73.05
2023-08-10T06:05:20.083Z,72.91
2023-08-10T06:07:49.775Z,72.83
2023-08-10T06:10:19.162Z,72.73
2023-08-10T06:12:50.628Z,72.64
2023-08-10T06:15:18.341Z,72.55
2023-08-10T06:17:49.144Z,72.28
2023-08-10T06:20:17.890Z,71.97
2023-08-10T06:22:47.115Z,71.92
2023-08-10T06:25:17.212Z,71.87
2023-08-10T06:27:48.441Z,71.82
2023-08-10T06:30:18.308Z,71.75
2023-08-10T06:32:47.120Z,71.60
2023-08-10T06:35:16.052Z,71.59
2023-08-10T06:37:44.411Z,71.59
2023-08-10T06:40:13.017Z,71.55
2023-08-10T06:42:41.317Z,71.33
2023-08-10T06:45:13.693Z,71.29
2023-08-10T06:47:44.306Z,71.21
2023-08-10T06:50:14.114Z,70.94
2023-08-10T06:53:02.639Z,70.80
2023-08-10T06:55:35.057Z,70.90
2023-08-10T06:58:08.621Z,70.71
2023-08-10T07:00:39.713Z,70.63
2023-08-10T07:03:14.086Z,70.69
2023-08-10T07:05:52.933Z,70.62
2023-08-10T07:08:27.262Z,70.52
2023-08-10T07:10:56.312Z,70.49
2023-08-10T07:13:29.497Z,70.45
2023-08-10T07:16:01.573Z,70.65
2023-08-10T07:18:31.950Z,71.11
2023-08-10T07:21:00.428Z,71.30
2023-08-10T07:23:40.245Z,72.27
2023-08-10T07:26:17.201Z,73.00
2023-08-10T07:28:46.536Z,73.53
2023-08-10T07:31:17.204Z,73.70
2023-08-10T07:33:47.634Z,74.01
2023-08-10T07:36:16.768Z,74.09
2023-08-10T07:38:46.978Z,74.23
2023-08-10T07:41:17.345Z,74.20
2023-08-10T07:43:47.067Z,74.36
2023-08-10T07:46:17.298Z,74.54
2023-08-10T07:48:47.905Z,74.50
2023-08-10T07:51:19.022Z,74.48
2023-08-10T07:54:04.518Z,74.24
2023-08-10T07:56:34.749Z,74.62
2023-08-10T07:59:04.748Z,74.78
2023-08-10T08:01:34.327Z,74.71
2023-08-10T08:04:04.622Z,75.09
2023-08-10T08:06:36.430Z,74.94
2023-08-10T08:09:26.966Z,74.63
2023-08-10T08:11:55.472Z,74.75
2023-08-10T08:14:23.880Z,74.84
2023-08-10T08:16:52.900Z,74.92
2023-08-10T08:19:22.090Z,75.36
2023-08-10T08:21:50.554Z,75.13
2023-08-10T08:24:19.629Z,74.77
2023-08-10T08:26:48.820Z,74.73
2023-08-10T08:29:18.631Z,74.68
2023-08-10T08:31:47.672Z,74.45
2023-08-10T08:34:16.153Z,74.44
2023-08-10T08:36:44.724Z,74.51
2023-08-10T08:39:14.466Z,74.57
2023-08-10T08:41:45.488Z,74.63
2023-08-10T08:44:16.127Z,74.58
2023-08-10T08:46:49.341Z,74.31
2023-08-10T08:49:18.780Z,74.32
2023-08-10T08:51:48.455Z,74.38
2023-08-10T08:54:17.413Z,74.29
2023-08-10T08:56:46.248Z,74.06
2023-08-10T08:59:17.293Z,74.09
2023-08-10T09:01:48.889Z,74.34
2023-08-10T09:04:17.909Z,74.31
2023-08-10T09:06:46.991Z,74.43
2023-08-10T09:09:17.646Z,74.58
2023-08-10T09:11:46.256Z,74.48
2023-08-10T09:14:16.987Z,74.63
2023-08-10T09:16:46.937Z,74.68
2023-08-10T09:19:18.519Z,74.65
2023-08-10T09:21:47.751Z,74.43
2023-08-10T09:24:17.602Z,74.44
2023-08-10T09:26:45.944Z,74.32
2023-08-10T09:29:15.018Z,74.48
2023-08-10T09:31:45.120Z,74.22
2023-08-10T09:34:23.151Z,73.52
2023-08-10T09:36:56.867Z,73.31
2023-08-10T09:39:32.197Z,73.00
2023-08-10T09:42:01.486Z,72.66
2023-08-10T09:44:44.532Z,71.92
2023-08-10T09:47:14.349Z,70.79
2023-08-10T09:49:55.318Z,70.01
2023-08-10T09:52:30.632Z,69.12
2023-08-10T09:54:59.529Z,67.99
2023-08-10T09:57:28.924Z,67.09
2023-08-10T09:59:58.966Z,66.88
2023-08-10T10:02:29.401Z,67.35
2023-08-10T10:04:58.946Z,67.86
2023-08-10T10:07:37.439Z,67.81
2023-08-10T10:10:12.058Z,67.97
2023-08-10T10:12:48.736Z,68.25
2023-08-10T10:15:20.036Z,68.05
2023-08-10T10:17:53.138Z,67.84
2023-08-10T10:20:22.897Z,67.54
2023-08-10T10:22:52.904Z,66.86
2023-08-10T10:25:21.508Z,66.03
2023-08-10T10:27:53.032Z,66.56
2023-08-10T10:30:30.758Z,66.70
2023-08-10T10:33:11.493Z,66.44
2023-08-10T10:39:05.384Z,66.54
2023-08-10T10:41:35.720Z,66.29
2023-08-10T10:44:07.142Z,66.94
2023-08-10T10:46:36.526Z,66.71
2023-08-10T10:49:08.159Z,65.73
2023-08-10T10:52:09.668Z,65.41
2023-08-10T10:54:58.004Z,65.58
2023-08-10T10:57:29.027Z,65.51
2023-08-10T10:59:58.071Z,65.08
2023-08-10T11:02:28.859Z,64.96
2023-08-10T11:05:17.878Z,64.58
2023-08-10T11:07:50.291Z,64.79
2023-08-10T11:10:20.959Z,64.32
2023-08-10T11:12:50.762Z,63.74
2023-08-10T11:15:21.500Z,63.55
2023-08-10T11:17:53.274Z,63.87
2023-08-10T11:20:30.331Z,64.10
2023-08-10T11:23:00.023Z,63.52
2023-08-10T11:25:28.413Z,63.38
2023-08-10T11:28:00.485Z,64.02
2023-08-10T11:30:35.219Z,63.41
2023-08-10T11:33:11.491Z,64.19
2023-08-10T11:35:44.541Z,64.36
2023-08-10T11:38:15.932Z,64.75
2023-08-10T11:40:46.642Z,65.39
2023-08-10T11:43:16.415Z,66.18
2023-08-10T11:45:45.296Z,66.97
2023-08-10T11:48:18.577Z,67.52
2023-08-10T11:50:48.784Z,67.59
2023-08-10T11:53:20.843Z,67.72
2023-08-10T11:55:51.585Z,67.75
2023-08-10T11:58:21.512Z,67.62
2023-08-10T12:00:52.178Z,67.93
2023-08-10T12:03:33.542Z,68.29
2023-08-10T12:06:05.860Z,68.58
2023-08-10T12:08:41.504Z,68.78
2023-08-10T12:11:16.587Z,69.19
2023-08-10T12:13:51.154Z,69.30
2023-08-10T12:16:22.360Z,69.11
2023-08-10T12:18:51.535Z,69.17
2023-08-10T12:21:20.530Z,69.07
2023-08-10T12:23:56.695Z,69.27
2023-08-10T12:26:25.682Z,69.41
2023-08-10T12:28:54.011Z,69.58
2023-08-10T12:31:22.760Z,69.79
2023-08-10T12:33:52.959Z,70.19
2023-08-10T12:36:21.189Z,70.41
2023-08-10T12:38:49.537Z,70.54
2023-08-10T12:41:17.858Z,70.64
2023-08-10T12:43:46.357Z,70.33
2023-08-10T12:46:16.425Z,70.42
2023-08-10T12:48:45.726Z,70.40
2023-08-10T12:51:14.844Z,70.44
2023-08-10T12:53:43.365Z,70.52
2023-08-10T12:56:12.199Z,70.26
2023-08-10T12:58:41.138Z,70.02
2023-08-10T13:01:09.639Z,69.49
2023-08-10T13:03:39.063Z,69.48
2023-08-10T13:06:07.509Z,69.59
2023-08-10T13:08:35.919Z,69.72
2023-08-10T13:11:04.955Z,69.72
2023-08-10T13:13:34.362Z,69.38
2023-08-10T13:16:04.207Z,69.28
2023-08-10T13:18:33.659Z,68.87
2023-08-10T13:21:02.178Z,68.58
2023-08-10T13:23:30.633Z,68.17
2023-08-10T13:26:01.083Z,67.43
2023-08-10T13:28:29.968Z,66.80
2023-08-10T13:30:59.860Z,66.08
2023-08-10T13:33:28.294Z,65.02
2023-08-10T13:35:57.266Z,63.99
2023-08-10T13:38:30.400Z,63.63
2023-08-10T13:40:59.720Z,62.90
2023-08-10T13:43:28.675Z,62.52
2023-08-10T13:45:57.175Z,61.96
2023-08-10T13:48:26.097Z,61.39
2023-08-10T13:50:54.415Z,61.38
2023-08-10T13:53:23.752Z,60.80
2023-08-10T13:55:53.064Z,61.20
2023-08-10T13:58:22.679Z,61.16
2023-08-10T14:00:51.146Z,61.05
2023-08-10T14:03:19.795Z,60.66
2023-08-10T14:05:48.659Z,59.88
2023-08-10T14:08:18.320Z,59.43
2023-08-10T14:10:46.787Z,59.05
2023-08-10T14:13:15.476Z,59.52
2023-08-10T14:15:44.595Z,59.47
2023-08-10T14:18:13.083Z,59.09
2023-08-10T14:20:42.012Z,58.56
2023-08-10T14:23:10.594Z,57.82
2023-08-10T14:25:38.963Z,57.74
2023-08-10T14:28:07.274Z,57.20
2023-08-10T14:30:35.990Z,56.84
2023-08-10T14:33:04.942Z,56.56
2023-08-10T14:35:34.566Z,56.78
2023-08-10T14:38:04.399Z,56.61
2023-08-10T14:40:32.617Z,56.73
2023-08-10T14:43:01.165Z,56.66
2023-08-10T14:45:31.301Z,56.40
2023-08-10T14:48:01.937Z,56.26
2023-08-10T14:50:30.561Z,56.36
2023-08-10T14:52:59.208Z,56.97
2023-08-10T14:55:28.259Z,57.06
2023-08-10T14:57:56.774Z,56.95
2023-08-10T15:00:25.236Z,56.79
2023-08-10T15:02:53.776Z,57.23
2023-08-10T15:05:23.287Z,57.87
2023-08-10T15:07:51.947Z,59.62
2023-08-10T15:10:21.573Z,61.00
2023-08-10T15:12:50.341Z,61.73
2023-08-10T15:15:20.669Z,62.33
2023-08-10T15:17:50.360Z,62.57
2023-08-10T15:20:20.965Z,63.17
2023-08-10T15:22:49.868Z,63.13
2023-08-10T15:25:19.162Z,63.13
2023-08-10T15:27:47.505Z,63.69
2023-08-10T15:30:17.009Z,64.03
2023-08-10T15:32:46.523Z,64.49
2023-08-10T15:35:15.059Z,64.31
2023-08-10T15:37:43.708Z,64.36
2023-08-10T15:40:12.624Z,64.61
2023-08-10T15:42:41.126Z,64.76
2023-08-10T15:45:10.922Z,64.34
2023-08-10T15:47:39.549Z,64.36
2023-08-10T15:50:11.352Z,64.27
2023-08-10T15:52:41.529Z,64.67
2023-08-10T15:55:10.793Z,64.82
2023-08-10T15:57:39.788Z,64.58
2023-08-10T16:00:09.915Z,64.50
2023-08-10T16:02:39.455Z,64.49
2023-08-10T16:05:09.384Z,64.77
2023-08-10T16:07:39.313Z,64.83
2023-08-10T16:10:09.016Z,64.99
2023-08-10T16:12:38.296Z,64.92
2023-08-10T16:15:08.286Z,64.78
2023-08-10T16:17:37.462Z,64.37
2023-08-10T16:20:09.881Z,64.09
2023-08-10T16:22:47.463Z,63.75
2023-08-10T16:25:16.614Z,63.84
2023-08-10T16:27:45.102Z,64.24
2023-08-10T16:30:14.018Z,64.25
2023-08-10T16:32:43.179Z,64.34
2023-08-10T16:35:11.726Z,64.54
2023-08-10T16:37:41.114Z,64.68
2023-08-10T16:40:09.755Z,64.75
2023-08-10T16:42:38.404Z,64.80
2023-08-10T16:45:07.511Z,64.73
2023-08-10T16:47:36.180Z,64.50
2023-08-10T16:50:06.136Z,64.37
2023-08-10T16:52:34.426Z,64.47
2023-08-10T16:55:07.245Z,64.41
2023-08-10T16:57:35.637Z,64.40
2023-08-10T17:00:09.918Z,64.93
2023-08-10T17:02:38.882Z,65.23
2023-08-10T17:05:07.885Z,65.25
2023-08-10T17:07:36.442Z,65.58
2023-08-10T17:10:06.337Z,65.60
2023-08-10T17:12:35.200Z,65.52
2023-08-10T17:15:04.292Z,65.50
2023-08-10T17:17:33.573Z,65.43
2023-08-10T17:20:02.648Z,65.58
2023-08-10T17:22:31.496Z,65.82
2023-08-10T17:24:59.975Z,66.11
2023-08-10T17:27:28.512Z,66.23
2023-08-10T17:29:59.165Z,66.27
2023-08-10T17:32:27.719Z,66.43
2023-08-10T17:34:57.973Z,66.80
2023-08-10T17:37:37.785Z,67.04
2023-08-10T17:40:10.092Z,67.27
2023-08-10T17:42:38.966Z,67.80
2023-08-10T17:45:08.093Z,68.37
2023-08-10T17:47:37.232Z,68.79
2023-08-10T17:50:07.673Z,69.16
2023-08-10T17:52:40.353Z,69.42
2023-08-10T17:55:12.157Z,69.58
2023-08-10T17:57:41.518Z,69.89
2023-08-10T18:00:13.356Z,70.14
2023-08-10T18:02:42.777Z,70.51
2023-08-10T18:05:12.663Z,70.62
2023-08-10T18:07:41.249Z,70.60
2023-08-10T18:10:10.158Z,70.33
2023-08-10T18:12:46.699Z,70.49
2023-08-10T18:15:16.351Z,70.93
2023-08-10T18:17:45.111Z,71.31
2023-08-10T18:20:14.083Z,71.53
2023-08-10T18:22:42.748Z,71.65
2023-08-10T18:25:11.220Z,71.86
2023-08-10T18:27:40.642Z,72.03
2023-08-10T18:30:10.181Z,72.68
2023-08-10T18:32:39.743Z,72.91
2023-08-10T18:35:10.339Z,73.22
2023-08-10T18:37:38.816Z,73.61
2023-08-10T18:40:08.042Z,73.26
2023-08-10T18:42:36.464Z,73.08
2023-08-10T18:45:06.348Z,73.76
2023-08-10T18:47:35.416Z,73.53
2023-08-10T18:50:06.888Z,74.18
2023-08-10T18:52:35.247Z,74.52
2023-08-10T18:55:03.680Z,74.84
2023-08-10T18:57:33.693Z,75.34
2023-08-10T19:00:02.538Z,75.75
2023-08-10T19:02:32.304Z,75.88
2023-08-10T19:05:01.073Z,76.39
2023-08-10T19:07:29.425Z,76.63
2023-08-10T19:09:59.260Z,76.83
2023-08-10T19:12:28.423Z,77.02
2023-08-10T19:14:57.048Z,77.15
2023-08-10T19:17:26.192Z,77.39
2023-08-10T19:19:54.957Z,77.47
2023-08-10T19:22:23.354Z,77.47
2023-08-10T19:24:52.040Z,77.65
2023-08-10T19:27:21.082Z,77.52
2023-08-10T19:29:49.820Z,77.52
2023-08-10T19:32:18.500Z,77.69
2023-08-10T19:34:47.867Z,77.67
2023-08-10T19:37:16.284Z,77.80
2023-08-10T19:39:44.756Z,77.75
2023-08-10T19:42:14.254Z,77.73
2023-08-10T19:44:44.566Z,77.82
2023-08-10T19:47:14.238Z,77.91
2023-08-10T19:49:46.988Z,78.03
2023-08-10T19:52:15.913Z,77.81
2023-08-10T19:54:47.313Z,77.92
2023-08-10T19:57:15.985Z,78.03
2023-08-10T19:59:44.609Z,77.87
2023-08-10T20:02:13.045Z,77.99
2023-08-10T20:04:42.052Z,78.07
2023-08-10T20:07:11.221Z,78.07
2023-08-10T20:09:40.658Z,78.08
2023-08-10T20:12:09.689Z,78.12
2023-08-10T20:14:38.356Z,78.11
2023-08-10T20:17:07.545Z,78.11
2023-08-10T20:19:36.449Z,78.10
2023-08-10T20:22:06.360Z,78.02
2023-08-10T20:24:46.327Z,77.95
2023-08-10T20:27:15.458Z,77.85
2023-08-10T20:29:44.563Z,77.78
2023-08-10T20:32:14.659Z,77.78
2023-08-10T20:34:43.582Z,77.72
2023-08-10T20:37:13.091Z,77.83
2023-08-10T20:39:42.253Z,77.89
2023-08-10T20:42:13.765Z,78.01
2023-08-10T20:44:44.264Z,78.02
2023-08-10T20:47:13.179Z,78.15
2023-08-10T20:49:42.759Z,78.12
2023-08-10T20:52:15.029Z,78.15
2023-08-10T20:54:43.603Z,78.19
2023-08-10T20:57:12.413Z,78.24
2023-08-10T20:59:43.942Z,78.14
2023-08-10T21:02:12.618Z,78.22
2023-08-10T21:04:41.634Z,78.21
2023-08-10T21:07:11.361Z,78.27
2023-08-10T21:09:41.160Z,78.30
2023-08-10T21:12:10.937Z,78.34
2023-08-10T21:14:40.000Z,78.36
2023-08-10T21:17:09.674Z,78.35
2023-08-10T21:19:38.704Z,78.47
2023-08-10T21:22:08.628Z,78.60
2023-08-10T21:24:38.119Z,78.66
2023-08-10T21:27:07.335Z,78.65
2023-08-10T21:29:38.102Z,78.60
2023-08-10T21:32:06.946Z,78.56
2023-08-10T21:34:36.574Z,78.51
2023-08-10T21:37:05.485Z,78.53
2023-08-10T21:39:39.312Z,78.55
2023-08-10T21:42:08.498Z,78.72
2023-08-10T21:44:37.063Z,78.81
2023-08-10T21:47:06.548Z,78.68
2023-08-10T21:49:35.251Z,78.64
2023-08-10T21:52:03.551Z,78.59
2023-08-10T21:54:32.709Z,78.64
2023-08-10T21:57:03.253Z,78.76
2023-08-10T21:59:33.607Z,78.70
2023-08-10T22:02:03.200Z,78.62
2023-08-10T22:04:32.928Z,78.56
2023-08-10T22:07:05.686Z,78.63
2023-08-10T22:09:35.897Z,78.56
2023-08-10T22:12:05.128Z,78.68
2023-08-10T22:14:34.364Z,78.81
2023-08-10T22:17:04.168Z,79.08
2023-08-10T22:19:32.654Z,79.01
2023-08-10T22:22:01.353Z,79.13
2023-08-10T22:24:29.806Z,79.01
2023-08-10T22:26:58.427Z,79.10
2023-08-10T22:29:27.020Z,79.12
2023-08-10T22:31:55.429Z,79.19
2023-08-10T22:34:23.805Z,79.12
2023-08-10T22:36:52.153Z,79.24
2023-08-10T22:39:20.602Z,79.25
2023-08-10T22:41:49.081Z,79.09
2023-08-10T22:44:17.365Z,78.92
2023-08-10T22:46:45.685Z,78.84
2023-08-10T22:49:14.081Z,78.72
2023-08-10T22:51:42.510Z,78.55
2023-08-10T22:54:11.344Z,78.51
2023-08-10T22:56:39.803Z,78.44
2023-08-10T22:59:09.213Z,78.54
2023-08-10T23:01:37.481Z,78.61
2023-08-10T23:04:07.383Z,78.60
2023-08-10T23:06:35.772Z,78.67
2023-08-10T23:09:04.332Z,78.85
2023-08-10T23:11:32.839Z,78.91
2023-08-10T23:14:01.104Z,79.05
2023-08-10T23:16:29.350Z,79.09
2023-08-10T23:18:57.949Z,79.18
2023-08-10T23:21:26.219Z,79.43
2023-08-10T23:23:54.811Z,79.58
2023-08-10T23:26:23.381Z,79.73
2023-08-10T23:28:51.994Z,79.97
2023-08-10T23:31:20.494Z,80.19
2023-08-10T23:33:49.684Z,80.15
2023-08-10T23:36:18.001Z,80.30
2023-08-10T23:38:46.713Z,80.40
2023-08-10T23:41:15.698Z,80.47
2023-08-10T23:43:44.325Z,80.56
2023-08-10T23:46:12.982Z,81.04
2023-08-10T23:48:41.359Z,81.15
2023-08-10T23:51:09.615Z,81.42
2023-08-10T23:53:38.015Z,81.51
2023-08-10T23:56:06.930Z,81.49
2023-08-10T23:58:39.134Z,81.79
